createdAt,value
2023-02-03T00:00:07.494Z,0.89
2023-02-03T00:03:03.868Z,0.89
2023-02-03T00:05:34.673Z,0.88
2023-02-03T00:08:06.124Z,0.87
2023-02-03T00:10:36.937Z,0.87
2023-02-03T00:17:14.734Z,0.79
2023-02-03T00:19:43.625Z,0.77
2023-02-03T00:22:12.974Z,0.75
2023-02-03T00:24:42.239Z,0.72
2023-02-03T00:27:11.280Z,0.70
2023-02-03T00:29:41.156Z,0.64
2023-02-03T00:32:10.217Z,0.60
2023-02-03T00:34:39.893Z,0.54
2023-02-03T00:37:09.367Z,0.49
2023-02-03T00:39:39.414Z,0.43
2023-02-03T00:42:08.751Z,0.37
2023-02-03T00:44:37.999Z,0.32
2023-02-03T00:47:07.714Z,0.29
2023-02-03T00:50:07.422Z,0.23
2023-02-03T00:52:37.728Z,0.22
2023-02-03T00:55:08.922Z,0.21
2023-02-03T00:57:38.135Z,0.21
2023-02-03T01:00:10.101Z,0.23
2023-02-03T01:02:39.364Z,0.23
2023-02-03T01:05:10.730Z,0.23
2023-02-03T01:07:39.997Z,0.26
2023-02-03T01:10:10.850Z,0.26
2023-02-03T01:12:40.167Z,0.25
2023-02-03T01:15:12.706Z,0.28
2023-02-03T01:17:42.730Z,0.30
2023-02-03T01:20:15.842Z,0.30
2023-02-03T01:22:45.153Z,0.32
2023-02-03T01:25:14.372Z,0.33
2023-02-03T01:27:43.943Z,0.37
2023-02-03T01:30:14.273Z,0.36
2023-02-03T01:32:43.587Z,0.37
2023-02-03T01:35:13.189Z,0.36
2023-02-03T01:37:42.468Z,0.39
2023-02-03T01:40:14.565Z,0.37
2023-02-03T01:42:44.230Z,0.40
2023-02-03T01:45:14.680Z,0.42
2023-02-03T01:47:50.426Z,0.39
2023-02-03T01:50:23.205Z,0.42
2023-02-03T01:52:57.052Z,0.42
2023-02-03T01:55:31.816Z,0.40
2023-02-03T01:58:05.886Z,0.42
2023-02-03T02:00:35.248Z,0.39
2023-02-03T02:03:06.993Z,0.40
2023-02-03T02:05:39.679Z,0.34
2023-02-03T02:08:11.289Z,0.37
2023-02-03T02:10:41.149Z,0.37
2023-02-03T02:13:12.346Z,0.37
2023-02-03T02:15:50.601Z,0.36
2023-02-03T02:18:30.892Z,0.33
2023-02-03T02:21:24.642Z,0.32
2023-02-03T02:24:39.406Z,0.30
2023-02-03T02:27:10.984Z,0.29
2023-02-03T02:30:21.140Z,0.29
2023-02-03T02:33:01.500Z,0.28
2023-02-03T02:35:45.589Z,0.23
2023-02-03T02:38:25.944Z,0.22
2023-02-03T02:41:02.929Z,0.21
2023-02-03T02:43:40.801Z,0.16
2023-02-03T02:46:14.417Z,0.14
2023-02-03T02:48:50.321Z,0.06
2023-02-03T02:51:22.854Z,0.04
2023-02-03T02:53:58.278Z,-0.04
2023-02-03T02:56:30.911Z,-0.06
2023-02-03T02:59:02.480Z,-0.13
2023-02-03T03:01:32.257Z,-0.21
2023-02-03T03:04:05.791Z,-0.25
2023-02-03T03:06:40.319Z,-0.30
2023-02-03T03:09:15.323Z,-0.34
2023-02-03T03:11:50.311Z,-0.41
2023-02-03T03:14:23.321Z,-0.47
2023-02-03T03:16:58.245Z,-0.51
2023-02-03T03:19:32.929Z,-0.58
2023-02-03T03:22:05.431Z,-0.61
2023-02-03T03:24:41.678Z,-0.62
2023-02-03T03:27:17.242Z,-0.68
2023-02-03T03:29:50.906Z,-0.72
2023-02-03T03:32:21.070Z,-0.75
2023-02-03T03:34:50.750Z,-0.78
2023-02-03T03:37:24.688Z,-0.82
2023-02-03T03:39:57.320Z,-0.82
2023-02-03T03:42:33.094Z,-0.88
2023-02-03T03:45:08.109Z,-0.88
2023-02-03T03:47:42.239Z,-0.92
2023-02-03T03:50:17.989Z,-0.93
2023-02-03T03:52:50.051Z,-0.95
2023-02-03T03:55:20.975Z,-0.99
2023-02-03T03:57:58.259Z,-1.02
2023-02-03T04:00:30.864Z,-1.06
2023-02-03T04:03:05.288Z,-1.09
2023-02-03T04:05:38.371Z,-1.11
2023-02-03T04:08:08.516Z,-1.13
2023-02-03T04:10:39.899Z,-1.15
2023-02-03T04:13:12.626Z,-1.15
2023-02-03T04:15:42.032Z,-1.16
2023-02-03T04:18:13.765Z,-1.22
2023-02-03T04:20:43.212Z,-1.22
2023-02-03T04:23:12.309Z,-1.23
2023-02-03T04:25:41.532Z,-1.27
2023-02-03T04:28:11.078Z,-1.29
2023-02-03T04:30:40.019Z,-1.34
2023-02-03T04:33:09.109Z,-1.37
2023-02-03T04:35:38.191Z,-1.41
2023-02-03T04:38:09.118Z,-1.44
2023-02-03T04:40:38.259Z,-1.45
2023-02-03T04:43:08.873Z,-1.48
2023-02-03T04:45:38.616Z,-1.50
2023-02-03T04:48:09.710Z,-1.51
2023-02-03T04:50:38.781Z,-1.52
2023-02-03T04:53:10.971Z,-1.51
2023-02-03T04:55:40.050Z,-1.50
2023-02-03T04:58:10.054Z,-1.50
2023-02-03T05:00:39.290Z,-1.50
2023-02-03T05:03:08.644Z,-1.48
2023-02-03T05:05:38.457Z,-1.47
2023-02-03T05:08:07.380Z,-1.50
2023-02-03T05:10:36.721Z,-1.48
2023-02-03T05:13:10.186Z,-1.50
2023-02-03T05:15:39.483Z,-1.51
2023-02-03T05:18:09.298Z,-1.50
2023-02-03T05:20:38.373Z,-1.51
2023-02-03T05:23:07.564Z,-1.52
2023-02-03T05:25:36.765Z,-1.52
2023-02-03T05:28:07.794Z,-1.52
2023-02-03T05:30:37.772Z,-1.54
2023-02-03T05:33:07.109Z,-1.54
2023-02-03T05:35:36.451Z,-1.52
2023-02-03T05:38:08.612Z,-1.52
2023-02-03T05:40:56.279Z,-1.55
2023-02-03T05:43:25.480Z,-1.51
2023-02-03T05:45:54.572Z,-1.51
2023-02-03T05:48:24.871Z,-1.52
2023-02-03T05:50:54.162Z,-1.51
2023-02-03T05:53:23.879Z,-1.55
2023-02-03T05:55:53.080Z,-1.55
2023-02-03T05:58:21.935Z,-1.54
2023-02-03T06:00:51.898Z,-1.54
2023-02-03T06:03:20.911Z,-1.54
2023-02-03T06:05:50.448Z,-1.55
2023-02-03T06:08:19.888Z,-1.55
2023-02-03T06:10:48.713Z,-1.55
2023-02-03T06:13:18.673Z,-1.55
2023-02-03T06:15:47.609Z,-1.57
2023-02-03T06:18:17.216Z,-1.57
2023-02-03T06:20:46.306Z,-1.55
2023-02-03T06:23:16.613Z,-1.55
2023-02-03T06:25:48.888Z,-1.57
2023-02-03T06:28:18.402Z,-1.51
2023-02-03T06:30:52.567Z,-1.55
2023-02-03T06:33:20.947Z,-1.54
2023-02-03T06:35:49.815Z,-1.54
2023-02-03T06:38:19.078Z,-1.52
2023-02-03T06:40:48.393Z,-1.51
2023-02-03T06:43:17.882Z,-1.50
2023-02-03T06:45:48.033Z,-1.45
2023-02-03T06:48:16.891Z,-1.44
2023-02-03T06:50:48.532Z,-1.40
2023-02-03T06:53:17.755Z,-1.34
2023-02-03T06:55:47.780Z,-1.29
2023-02-03T06:58:16.869Z,-1.23
2023-02-03T07:00:46.524Z,-1.13
2023-02-03T07:03:15.712Z,-1.05
2023-02-03T07:05:44.626Z,-0.97
2023-02-03T07:08:13.869Z,-0.89
2023-02-03T07:10:42.992Z,-0.85
2023-02-03T07:13:11.953Z,-0.81
2023-02-03T07:15:41.640Z,-0.74
2023-02-03T07:18:11.877Z,-0.67
2023-02-03T07:20:42.134Z,-0.68
2023-02-03T07:23:11.136Z,-0.65
2023-02-03T07:25:40.408Z,-0.62
2023-02-03T07:28:09.985Z,-0.58
2023-02-03T07:30:39.308Z,-0.53
2023-02-03T07:33:08.335Z,-0.47
2023-02-03T07:35:37.635Z,-0.39
2023-02-03T07:38:06.958Z,-0.33
2023-02-03T07:40:37.130Z,-0.23
2023-02-03T07:43:06.857Z,-0.16
2023-02-03T07:45:35.980Z,-0.08
2023-02-03T07:48:05.858Z,0.01
2023-02-03T07:50:35.199Z,0.11
2023-02-03T07:53:05.157Z,0.16
2023-02-03T07:55:34.526Z,0.25
2023-02-03T07:58:04.373Z,0.33
2023-02-03T08:00:34.193Z,0.39
2023-02-03T08:03:04.213Z,0.47
2023-02-03T08:05:33.523Z,0.53
2023-02-03T08:08:03.348Z,0.61
2023-02-03T08:10:32.778Z,0.71
2023-02-03T08:13:01.986Z,0.75
2023-02-03T08:15:31.672Z,0.78
2023-02-03T08:18:00.741Z,0.85
2023-02-03T08:20:32.092Z,0.93
2023-02-03T08:23:01.463Z,0.96
2023-02-03T08:25:31.943Z,1.06
2023-02-03T08:28:00.951Z,1.15
2023-02-03T08:30:33.040Z,1.20
2023-02-03T08:33:02.780Z,1.30
2023-02-03T08:35:32.492Z,1.39
2023-02-03T08:38:01.641Z,1.55
2023-02-03T08:40:32.678Z,1.71
2023-02-03T08:43:02.224Z,1.81
2023-02-03T08:45:32.612Z,1.83
2023-02-03T08:48:02.683Z,1.88
2023-02-03T08:50:32.050Z,1.99
2023-02-03T08:53:02.263Z,2.07
2023-02-03T08:55:32.478Z,2.16
2023-02-03T08:58:01.860Z,2.18
2023-02-03T09:00:33.209Z,2.21
2023-02-03T09:03:03.738Z,2.32
2023-02-03T09:05:33.939Z,2.58
2023-02-03T09:08:04.561Z,2.83
2023-02-03T09:10:33.779Z,2.89
2023-02-03T09:13:04.276Z,2.86
2023-02-03T09:15:34.253Z,2.86
2023-02-03T09:18:04.140Z,2.89
2023-02-03T09:20:33.228Z,2.82
2023-02-03T09:23:03.377Z,2.83
2023-02-03T09:25:32.965Z,2.79
2023-02-03T09:28:04.364Z,2.81
2023-02-03T09:30:33.893Z,2.86
2023-02-03T09:33:05.192Z,2.89
2023-02-03T09:35:34.368Z,2.90
2023-02-03T09:38:04.276Z,2.92
2023-02-03T09:40:37.087Z,2.89
2023-02-03T09:43:22.972Z,2.85
2023-02-03T09:45:52.458Z,2.85
2023-02-03T09:48:24.652Z,2.83
2023-02-03T09:50:54.814Z,2.83
2023-02-03T09:53:30.364Z,2.85
2023-02-03T09:56:00.847Z,2.79
2023-02-03T09:58:34.316Z,2.85
2023-02-03T10:01:09.525Z,2.88
2023-02-03T10:03:46.255Z,3.04
2023-02-03T10:06:27.862Z,3.45
2023-02-03T10:09:14.027Z,3.97
2023-02-03T10:11:58.999Z,4.72
2023-02-03T10:14:46.587Z,5.45
2023-02-03T10:17:30.806Z,5.72
2023-02-03T10:20:05.050Z,5.83
2023-02-03T10:22:40.835Z,5.87
2023-02-03T10:25:24.207Z,6.14
2023-02-03T10:27:59.984Z,6.10
2023-02-03T10:30:34.021Z,5.76
2023-02-03T10:33:13.607Z,5.32
2023-02-03T10:35:49.991Z,5.00
2023-02-03T10:38:34.223Z,4.94
2023-02-03T10:41:03.860Z,5.06
2023-02-03T10:43:51.025Z,5.12
2023-02-03T10:46:24.782Z,5.12
2023-02-03T10:48:54.855Z,5.01
2023-02-03T10:51:25.730Z,4.83
2023-02-03T10:53:54.770Z,4.52
2023-02-03T10:56:27.150Z,4.14
2023-02-03T10:59:00.318Z,3.79
2023-02-03T11:01:41.045Z,3.58
2023-02-03T11:04:30.344Z,3.34
2023-02-03T11:07:01.831Z,3.14
2023-02-03T11:09:36.856Z,2.99
2023-02-03T11:12:12.006Z,2.86
2023-02-03T11:14:43.891Z,2.75
2023-02-03T11:17:19.299Z,2.65
2023-02-03T11:19:49.516Z,2.54
2023-02-03T11:22:31.519Z,2.44
2023-02-03T11:25:04.433Z,2.40
2023-02-03T11:27:39.525Z,2.33
2023-02-03T11:30:15.483Z,2.26
2023-02-03T11:32:47.766Z,2.24
2023-02-03T11:35:19.745Z,2.23
2023-02-03T11:37:52.022Z,2.26
2023-02-03T11:40:32.198Z,2.32
2023-02-03T11:43:08.770Z,2.30
2023-02-03T11:45:41.800Z,2.30
2023-02-03T11:48:27.205Z,2.34
2023-02-03T11:51:14.770Z,2.36
2023-02-03T11:54:02.980Z,2.37
2023-02-03T11:56:50.243Z,2.40
2023-02-03T11:59:46.731Z,2.40
2023-02-03T12:02:46.869Z,2.41
2023-02-03T12:05:42.941Z,2.41
2023-02-03T12:08:27.343Z,2.43
2023-02-03T12:11:10.341Z,2.40
2023-02-03T12:13:56.459Z,2.34
2023-02-03T12:16:50.337Z,2.32
2023-02-03T12:19:27.127Z,2.27
2023-02-03T12:22:09.682Z,2.21
2023-02-03T12:24:53.320Z,2.17
2023-02-03T12:27:36.069Z,2.10
2023-02-03T12:30:13.827Z,2.10
2023-02-03T12:32:49.917Z,2.09
2023-02-03T12:35:25.385Z,2.06
2023-02-03T12:38:00.173Z,2.02
2023-02-03T12:40:36.694Z,1.98
2023-02-03T12:43:22.383Z,1.98
2023-02-03T12:45:54.842Z,1.96
2023-02-03T12:48:30.515Z,1.96
2023-02-03T12:51:05.230Z,1.92
2023-02-03T12:53:38.834Z,1.89
2023-02-03T12:56:12.298Z,1.88
2023-02-03T12:58:47.696Z,1.82
2023-02-03T13:01:23.009Z,1.78
2023-02-03T13:03:59.111Z,1.72
2023-02-03T13:06:34.136Z,1.61
2023-02-03T13:09:21.455Z,1.54
2023-02-03T13:11:56.630Z,1.46
2023-02-03T13:14:33.262Z,1.40
2023-02-03T13:17:11.735Z,1.34
2023-02-03T13:19:45.599Z,1.29
2023-02-03T13:22:16.906Z,1.20
2023-02-03T13:24:49.907Z,1.13
2023-02-03T13:27:40.629Z,1.06
2023-02-03T13:30:31.771Z,1.00
2023-02-03T13:33:25.596Z,0.91
2023-02-03T13:36:05.300Z,0.84
2023-02-03T13:39:11.391Z,0.78
2023-02-03T13:41:49.540Z,0.70
2023-02-03T13:44:24.186Z,0.61
2023-02-03T13:46:54.982Z,0.53
2023-02-03T13:49:27.938Z,0.50
2023-02-03T13:51:58.621Z,0.47
2023-02-03T13:54:31.951Z,0.43
2023-02-03T13:57:03.047Z,0.37
2023-02-03T13:59:42.832Z,0.33
2023-02-03T14:02:40.644Z,0.32
2023-02-03T14:05:38.274Z,0.28
2023-02-03T14:08:53.534Z,0.23
2023-02-03T14:11:44.494Z,0.21
2023-02-03T14:14:45.275Z,0.18
2023-02-03T14:18:02.174Z,0.18
2023-02-03T14:20:50.830Z,0.14
2023-02-03T14:23:28.838Z,0.09
2023-02-03T14:26:00.952Z,0.08
2023-02-03T14:28:40.616Z,0.06
2023-02-03T14:31:16.280Z,0.05
2023-02-03T14:34:08.202Z,0.06
2023-02-03T14:36:42.012Z,0.04
2023-02-03T14:39:54.692Z,0.02
2023-02-03T14:42:45.449Z,0.01
2023-02-03T14:45:54.595Z,0.02
2023-02-03T14:48:49.812Z,0.01
2023-02-03T14:51:31.467Z,0.01
2023-02-03T14:54:15.533Z,-0.01
2023-02-03T14:57:04.795Z,-0.02
2023-02-03T14:59:42.198Z,-0.01
2023-02-03T15:02:20.012Z,-0.01
2023-02-03T15:04:50.314Z,-0.01
2023-02-03T15:07:44.909Z,-0.04
2023-02-03T15:10:17.889Z,-0.05
2023-02-03T15:12:48.843Z,-0.05
2023-02-03T15:15:23.863Z,-0.06
2023-02-03T15:17:56.237Z,-0.04
2023-02-03T15:20:33.308Z,-0.02
2023-02-03T15:23:03.250Z,-0.05
2023-02-03T15:25:32.594Z,-0.05
2023-02-03T15:28:20.165Z,-0.05
2023-02-03T15:30:57.756Z,-0.04
2023-02-03T15:33:29.717Z,-0.08
2023-02-03T15:36:05.648Z,-0.08
2023-02-03T15:38:39.620Z,-0.06
2023-02-03T15:41:17.248Z,-0.09
2023-02-03T15:43:50.069Z,-0.11
2023-02-03T15:46:24.726Z,-0.09
2023-02-03T15:48:58.943Z,-0.08
2023-02-03T15:51:33.772Z,-0.11
2023-02-03T15:54:09.854Z,-0.11
2023-02-03T15:56:43.849Z,-0.11
2023-02-03T15:59:23.452Z,-0.12
2023-02-03T16:01:54.176Z,-0.09
2023-02-03T16:04:25.147Z,-0.09
2023-02-03T16:06:55.913Z,-0.08
2023-02-03T16:09:31.624Z,-0.11
2023-02-03T16:12:19.356Z,-0.11
2023-02-03T16:14:49.107Z,-0.11
2023-02-03T16:17:33.612Z,-0.11
2023-02-03T16:20:28.926Z,-0.11
2023-02-03T16:23:04.292Z,-0.11
2023-02-03T16:25:35.162Z,-0.12
2023-02-03T16:28:35.680Z,-0.09
2023-02-03T16:31:33.737Z,-0.09
2023-02-03T16:34:32.087Z,-0.09
2023-02-03T16:37:21.108Z,-0.09
2023-02-03T16:40:11.557Z,-0.12
2023-02-03T16:42:59.909Z,-0.09
2023-02-03T16:45:50.199Z,-0.08
2023-02-03T16:48:39.064Z,-0.06
2023-02-03T16:51:15.431Z,-0.09
2023-02-03T16:53:48.234Z,-0.08
2023-02-03T16:56:19.323Z,-0.05
2023-02-03T16:58:51.727Z,-0.04
2023-02-03T17:01:21.907Z,-0.04
2023-02-03T17:03:51.385Z,-0.04
2023-02-03T17:06:23.833Z,-0.04
2023-02-03T17:08:53.779Z,-0.04
2023-02-03T17:11:24.329Z,-0.02
2023-02-03T17:13:56.952Z,-0.02
2023-02-03T17:16:29.392Z,-0.02
2023-02-03T17:19:00.191Z,-0.02
2023-02-03T17:21:31.769Z,-0.01
2023-02-03T17:24:01.727Z,-0.02
2023-02-03T17:26:34.435Z,-0.01
2023-02-03T17:29:04.125Z,-0.01
2023-02-03T17:31:34.974Z,0.01
2023-02-03T17:34:04.767Z,0.01
2023-02-03T17:36:34.047Z,0.01
2023-02-03T17:55:39.409Z,0.06
2023-02-03T17:58:14.014Z,0.08
2023-02-03T18:00:43.866Z,0.09
2023-02-03T18:03:14.273Z,0.08
2023-02-03T18:05:58.901Z,0.08
2023-02-03T18:08:35.784Z,0.06
2023-02-03T18:11:16.655Z,0.06
2023-02-03T18:14:00.096Z,0.05
2023-02-03T18:16:39.608Z,0.06
2023-02-03T18:19:17.094Z,0.09
2023-02-03T18:21:53.789Z,0.09
2023-02-03T18:24:29.994Z,0.09
2023-02-03T18:27:09.316Z,0.12
2023-02-03T18:29:46.892Z,0.12
2023-02-03T18:32:20.234Z,0.11
2023-02-03T18:34:58.084Z,0.11
2023-02-03T18:37:36.016Z,0.11
2023-02-03T18:40:11.371Z,0.12
2023-02-03T18:42:43.620Z,0.11
2023-02-03T18:45:17.150Z,0.12
2023-02-03T18:47:54.900Z,0.12
2023-02-03T18:50:31.839Z,0.11
2023-02-03T18:53:15.860Z,0.12
2023-02-03T18:55:48.681Z,0.11
2023-02-03T18:58:24.189Z,0.14
2023-02-03T19:01:21.850Z,0.14
2023-02-03T19:04:03.345Z,0.14
2023-02-03T19:06:46.331Z,0.14
2023-02-03T19:09:29.432Z,0.14
2023-02-03T19:12:06.574Z,0.14
2023-02-03T19:14:42.076Z,0.14
2023-02-03T19:17:18.802Z,0.14
2023-02-03T19:19:52.591Z,0.12
2023-02-03T19:22:26.553Z,0.14
2023-02-03T19:25:00.767Z,0.12
2023-02-03T19:27:36.241Z,0.12
2023-02-03T19:30:14.570Z,0.14
2023-02-03T19:33:01.863Z,0.12
2023-02-03T19:35:40.763Z,0.12
2023-02-03T19:38:17.114Z,0.11
2023-02-03T19:40:49.937Z,0.12
2023-02-03T19:43:24.996Z,0.11
2023-02-03T19:46:16.518Z,0.14
2023-02-03T19:49:01.172Z,0.12
2023-02-03T19:51:41.183Z,0.12
2023-02-03T19:54:19.767Z,0.12
2023-02-03T19:56:56.022Z,0.12
2023-02-03T19:59:36.796Z,0.12
2023-02-03T20:02:17.613Z,0.12
2023-02-03T20:04:53.815Z,0.11
2023-02-03T20:07:33.410Z,0.12
2023-02-03T20:10:10.687Z,0.12
2023-02-03T20:12:45.892Z,0.11
2023-02-03T20:15:18.522Z,0.11
2023-02-03T20:17:57.989Z,0.12
2023-02-03T20:20:34.067Z,0.14
2023-02-03T20:23:19.286Z,0.14
2023-02-03T20:25:54.108Z,0.15
2023-02-03T20:28:33.721Z,0.14
2023-02-03T20:31:11.008Z,0.14
2023-02-03T20:33:49.136Z,0.14
2023-02-03T20:36:29.518Z,0.12
2023-02-03T20:39:00.096Z,0.15
2023-02-03T20:41:55.346Z,0.14
2023-02-03T20:44:34.439Z,0.12
2023-02-03T20:47:17.254Z,0.14
2023-02-03T20:49:49.331Z,0.14
2023-02-03T20:52:22.020Z,0.11
2023-02-03T20:54:57.198Z,0.11
2023-02-03T20:57:34.187Z,0.14
2023-02-03T21:00:33.250Z,0.09
2023-02-03T21:03:23.549Z,0.12
2023-02-03T21:05:58.570Z,0.14
2023-02-03T21:08:44.156Z,0.12
2023-02-03T21:11:30.670Z,0.09
2023-02-03T21:14:22.990Z,0.06
2023-02-03T21:16:57.073Z,0.08
2023-02-03T21:19:38.200Z,0.08
2023-02-03T21:22:26.382Z,0.06
2023-02-03T21:25:06.624Z,0.06
2023-02-03T21:27:49.493Z,0.06
2023-02-03T21:30:34.189Z,0.06
2023-02-03T21:33:27.919Z,0.08
2023-02-03T21:36:07.662Z,0.06
2023-02-03T21:38:44.564Z,0.05
2023-02-03T21:41:20.399Z,0.05
2023-02-03T21:43:54.980Z,0.06
2023-02-03T21:46:26.898Z,0.05
2023-02-03T21:48:58.070Z,0.05
2023-02-03T21:51:30.788Z,0.05
2023-02-03T21:54:01.846Z,0.05
2023-02-03T21:56:37.798Z,0.05
2023-02-03T21:59:16.390Z,0.05
2023-02-03T22:01:45.754Z,0.05
2023-02-03T22:04:17.647Z,0.04
2023-02-03T22:06:49.005Z,0.02
2023-02-03T22:09:21.653Z,0.02
2023-02-03T22:11:51.491Z,0.04
2023-02-03T22:14:21.057Z,0.02
2023-02-03T22:16:51.008Z,0.01
2023-02-03T22:19:22.379Z,-0.02
2023-02-03T22:21:51.969Z,-0.01
2023-02-03T22:24:21.451Z,-0.02
2023-02-03T22:26:52.243Z,-0.04
2023-02-03T22:29:22.668Z,-0.04
2023-02-03T22:31:51.964Z,-0.05
2023-02-03T22:34:22.800Z,-0.08
2023-02-03T22:36:52.045Z,-0.09
2023-02-03T22:39:21.696Z,-0.08
2023-02-03T22:41:51.226Z,-0.08
2023-02-03T22:44:20.517Z,-0.12
2023-02-03T22:46:50.004Z,-0.11
2023-02-03T22:49:19.391Z,-0.12
2023-02-03T22:51:48.908Z,-0.15
2023-02-03T22:54:18.537Z,-0.16
2023-02-03T22:56:48.055Z,-0.19
2023-02-03T22:59:17.146Z,-0.19
2023-02-03T23:01:46.226Z,-0.23
2023-02-03T23:04:15.333Z,-0.21
2023-02-03T23:06:44.610Z,-0.23
2023-02-03T23:09:13.729Z,-0.25
2023-02-03T23:11:42.608Z,-0.27
2023-02-03T23:14:11.783Z,-0.32
2023-02-03T23:16:40.656Z,-0.33
2023-02-03T23:19:09.668Z,-0.34
2023-02-03T23:21:38.889Z,-0.36
2023-02-03T23:24:08.680Z,-0.37
2023-02-03T23:26:37.502Z,-0.37
2023-02-03T23:29:06.434Z,-0.40
2023-02-03T23:31:35.426Z,-0.39
2023-02-03T23:34:22.727Z,-0.39
2023-02-03T23:36:51.702Z,-0.44
2023-02-03T23:39:21.381Z,-0.44
2023-02-03T23:41:50.970Z,-0.49
2023-02-03T23:44:20.317Z,-0.49
2023-02-03T23:46:49.763Z,-0.49
2023-02-03T23:49:19.341Z,-0.50
